sensor_id;sensor_type;location;lat;lon;timestamp;temperature;humidity
36924;DHT22;22841;50.252;18.688;2023-11-19T00:01:23;1.10;99.90
36924;DHT22;22841;50.252;18.688;2023-11-19T00:03:49;1.10;99.90
36924;DHT22;22841;50.252;18.688;2023-11-19T00:08:52;1.10;99.90
36924;DHT22;22841;50.252;18.688;2023-11-19T00:11:18;1.10;99.90
36924;DHT22;22841;50.252;18.688;2023-11-19T00:16:20;1.00;99.90
36924;DHT22;22841;50.252;18.688;2023-11-19T00:18:46;1.00;99.90
36924;DHT22;22841;50.252;18.688;2023-11-19T00:21:12;0.90;99.90
36924;DHT22;22841;50.252;18.688;2023-11-19T00:23:38;1.00;99.90
36924;DHT22;22841;50.252;18.688;2023-11-19T00:26:05;1.00;99.90
36924;DHT22;22841;50.252;18.688;2023-11-19T00:31:07;1.00;99.90
36924;DHT22;22841;50.252;18.688;2023-11-19T00:33:34;1.00;99.90
36924;DHT22;22841;50.252;18.688;2023-11-19T00:36:00;1.10;99.90
36924;DHT22;22841;50.252;18.688;2023-11-19T00:41:03;1.00;99.90
36924;DHT22;22841;50.252;18.688;2023-11-19T00:43:29;1.10;99.90
36924;DHT22;22841;50.252;18.688;2023-11-19T00:51:07;1.00;99.90
36924;DHT22;22841;50.252;18.688;2023-11-19T01:01:21;1.00;99.90
36924;DHT22;22841;50.252;18.688;2023-11-19T01:22:25;0.80;99.90
36924;DHT22;22841;50.252;18.688;2023-11-19T04:33:04;0.60;99.90
36924;DHT22;22841;50.252;18.688;2023-11-19T05:01:03;0.60;99.90
36924;DHT22;22841;50.252;18.688;2023-11-19T06:07:47;0.60;99.90
36924;DHT22;22841;50.252;18.688;2023-11-19T06:33:36;0.70;99.90
36924;DHT22;22841;50.252;18.688;2023-11-19T06:54:14;0.90;99.90
36924;DHT22;22841;50.252;18.688;2023-11-19T06:56:40;0.90;99.90
36924;DHT22;22841;50.252;18.688;2023-11-19T06:59:08;0.90;99.90
36924;DHT22;22841;50.252;18.688;2023-11-19T07:01:35;0.90;99.90
36924;DHT22;22841;50.252;18.688;2023-11-19T07:53:24;1.30;99.90
36924;DHT22;22841;50.252;18.688;2023-11-19T07:55:50;1.20;99.90
36924;DHT22;22841;50.252;18.688;2023-11-19T08:00:52;1.30;99.90
36924;DHT22;22841;50.252;18.688;2023-11-19T08:05:57;1.40;99.90
36924;DHT22;22841;50.252;18.688;2023-11-19T08:08:24;1.40;99.90
36924;DHT22;22841;50.252;18.688;2023-11-19T08:10:50;1.40;99.90
36924;DHT22;22841;50.252;18.688;2023-11-19T08:13:20;1.40;99.90
36924;DHT22;22841;50.252;18.688;2023-11-19T08:15:46;1.40;99.90
36924;DHT22;22841;50.252;18.688;2023-11-19T08:18:13;1.40;99.90
36924;DHT22;22841;50.252;18.688;2023-11-19T08:20:39;1.40;99.90
36924;DHT22;22841;50.252;18.688;2023-11-19T08:23:05;1.50;99.90
36924;DHT22;22841;50.252;18.688;2023-11-19T08:28:03;1.50;99.90
36924;DHT22;22841;50.252;18.688;2023-11-19T08:30:30;1.40;99.90
36924;DHT22;22841;50.252;18.688;2023-11-19T08:32:56;1.50;99.90
36924;DHT22;22841;50.252;18.688;2023-11-19T08:35:22;1.50;99.90
36924;DHT22;22841;50.252;18.688;2023-11-19T08:37:49;1.50;99.90
36924;DHT22;22841;50.252;18.688;2023-11-19T08:40:15;1.50;99.90
36924;DHT22;22841;50.252;18.688;2023-11-19T08:42:42;1.50;99.90
36924;DHT22;22841;50.252;18.688;2023-11-19T08:45:08;1.50;99.90
36924;DHT22;22841;50.252;18.688;2023-11-19T08:47:37;1.60;99.90
36924;DHT22;22841;50.252;18.688;2023-11-19T08:50:04;1.60;99.90
36924;DHT22;22841;50.252;18.688;2023-11-19T08:52:30;1.60;99.90
36924;DHT22;22841;50.252;18.688;2023-11-19T08:54:56;1.60;99.90
36924;DHT22;22841;50.252;18.688;2023-11-19T08:57:23;1.60;99.90
36924;DHT22;22841;50.252;18.688;2023-11-19T08:59:49;1.60;99.90
36924;DHT22;22841;50.252;18.688;2023-11-19T09:02:15;1.70;99.90
36924;DHT22;22841;50.252;18.688;2023-11-19T09:04:42;1.70;99.90
36924;DHT22;22841;50.252;18.688;2023-11-19T09:07:08;1.80;99.90
36924;DHT22;22841;50.252;18.688;2023-11-19T09:20:01;1.80;99.90
36924;DHT22;22841;50.252;18.688;2023-11-19T09:22:27;1.80;99.90
36924;DHT22;22841;50.252;18.688;2023-11-19T09:27:29;1.90;99.90
36924;DHT22;22841;50.252;18.688;2023-11-19T09:35:07;2.10;99.90
36924;DHT22;22841;50.252;18.688;2023-11-19T09:37:34;2.10;99.90
36924;DHT22;22841;50.252;18.688;2023-11-19T09:40:00;2.10;99.90
36924;DHT22;22841;50.252;18.688;2023-11-19T09:42:26;2.10;99.90
36924;DHT22;22841;50.252;18.688;2023-11-19T09:44:54;2.10;99.90
36924;DHT22;22841;50.252;18.688;2023-11-19T09:47:22;2.10;99.90
36924;DHT22;22841;50.252;18.688;2023-11-19T09:49:49;2.10;99.90
36924;DHT22;22841;50.252;18.688;2023-11-19T09:52:15;2.20;99.90
36924;DHT22;22841;50.252;18.688;2023-11-19T09:54:42;2.20;99.90
36924;DHT22;22841;50.252;18.688;2023-11-19T09:57:09;2.30;99.90
36924;DHT22;22841;50.252;18.688;2023-11-19T09:59:38;2.40;99.90
36924;DHT22;22841;50.252;18.688;2023-11-19T10:02:04;2.40;99.90
36924;DHT22;22841;50.252;18.688;2023-11-19T10:04:32;2.40;99.90
36924;DHT22;22841;50.252;18.688;2023-11-19T10:07:00;2.50;99.90
36924;DHT22;22841;50.252;18.688;2023-11-19T10:09:26;2.50;99.90
36924;DHT22;22841;50.252;18.688;2023-11-19T10:11:52;2.60;99.90
36924;DHT22;22841;50.252;18.688;2023-11-19T10:14:23;2.70;99.90
36924;DHT22;22841;50.252;18.688;2023-11-19T10:16:49;2.70;99.90
36924;DHT22;22841;50.252;18.688;2023-11-19T10:19:19;2.70;99.90
36924;DHT22;22841;50.252;18.688;2023-11-19T10:21:49;2.70;99.90
36924;DHT22;22841;50.252;18.688;2023-11-19T10:24:15;2.80;99.90
36924;DHT22;22841;50.252;18.688;2023-11-19T10:26:41;2.70;99.90
36924;DHT22;22841;50.252;18.688;2023-11-19T10:29:08;2.70;99.90
36924;DHT22;22841;50.252;18.688;2023-11-19T10:31:34;2.60;99.90
36924;DHT22;22841;50.252;18.688;2023-11-19T10:34:00;2.60;99.90
36924;DHT22;22841;50.252;18.688;2023-11-19T10:36:39;2.60;99.90
36924;DHT22;22841;50.252;18.688;2023-11-19T10:39:09;2.50;99.90
36924;DHT22;22841;50.252;18.688;2023-11-19T10:41:35;2.30;99.90
36924;DHT22;22841;50.252;18.688;2023-11-19T10:44:02;2.30;99.90
36924;DHT22;22841;50.252;18.688;2023-11-19T10:46:41;2.20;99.90
36924;DHT22;22841;50.252;18.688;2023-11-19T10:49:08;2.20;99.90
36924;DHT22;22841;50.252;18.688;2023-11-19T10:51:34;2.10;99.90
36924;DHT22;22841;50.252;18.688;2023-11-19T10:54:05;2.00;99.90
36924;DHT22;22841;50.252;18.688;2023-11-19T10:56:32;1.90;99.90
36924;DHT22;22841;50.252;18.688;2023-11-19T10:59:00;1.90;99.90
36924;DHT22;22841;50.252;18.688;2023-11-19T11:01:31;1.90;99.90
36924;DHT22;22841;50.252;18.688;2023-11-19T11:04:00;1.90;99.90
36924;DHT22;22841;50.252;18.688;2023-11-19T11:06:28;2.00;99.90
36924;DHT22;22841;50.252;18.688;2023-11-19T11:08:55;2.00;99.90
36924;DHT22;22841;50.252;18.688;2023-11-19T11:11:22;2.00;99.90
36924;DHT22;22841;50.252;18.688;2023-11-19T11:13:50;2.00;99.90
36924;DHT22;22841;50.252;18.688;2023-11-19T11:16:19;2.00;99.90
36924;DHT22;22841;50.252;18.688;2023-11-19T11:18:46;1.90;99.90
36924;DHT22;22841;50.252;18.688;2023-11-19T11:21:20;1.90;99.90
36924;DHT22;22841;50.252;18.688;2023-11-19T11:30:00;1.80;99.90
36924;DHT22;22841;50.252;18.688;2023-11-19T11:32:58;1.80;99.90
36924;DHT22;22841;50.252;18.688;2023-11-19T11:38:26;1.80;99.90
36924;DHT22;22841;50.252;18.688;2023-11-19T11:41:17;1.80;99.90
36924;DHT22;22841;50.252;18.688;2023-11-19T11:43:54;1.70;99.90
36924;DHT22;22841;50.252;18.688;2023-11-19T12:02:11;1.80;99.90
36924;DHT22;22841;50.252;18.688;2023-11-19T12:04:40;1.80;99.90
36924;DHT22;22841;50.252;18.688;2023-11-19T12:07:11;1.80;99.90
36924;DHT22;22841;50.252;18.688;2023-11-19T12:09:40;1.90;99.90
36924;DHT22;22841;50.252;18.688;2023-11-19T12:20:06;1.90;99.90
36924;DHT22;22841;50.252;18.688;2023-11-19T12:22:44;1.90;99.90
36924;DHT22;22841;50.252;18.688;2023-11-19T12:25:11;1.90;99.90
36924;DHT22;22841;50.252;18.688;2023-11-19T12:27:45;2.00;99.90
36924;DHT22;22841;50.252;18.688;2023-11-19T12:30:11;2.00;99.90
36924;DHT22;22841;50.252;18.688;2023-11-19T12:32:45;2.10;99.90
36924;DHT22;22841;50.252;18.688;2023-11-19T12:35:12;2.10;99.90
36924;DHT22;22841;50.252;18.688;2023-11-19T12:37:45;2.10;99.90
36924;DHT22;22841;50.252;18.688;2023-11-19T12:40:13;2.20;99.90
36924;DHT22;22841;50.252;18.688;2023-11-19T12:42:40;2.20;99.90
36924;DHT22;22841;50.252;18.688;2023-11-19T12:45:07;2.20;99.90
36924;DHT22;22841;50.252;18.688;2023-11-19T12:47:42;2.20;99.90
36924;DHT22;22841;50.252;18.688;2023-11-19T12:50:10;2.20;99.90
36924;DHT22;22841;50.252;18.688;2023-11-19T12:52:37;2.30;99.90
36924;DHT22;22841;50.252;18.688;2023-11-19T12:55:04;2.30;99.90
36924;DHT22;22841;50.252;18.688;2023-11-19T12:57:41;2.30;99.90
36924;DHT22;22841;50.252;18.688;2023-11-19T13:00:18;2.30;99.90
36924;DHT22;22841;50.252;18.688;2023-11-19T13:02:48;2.30;99.90
36924;DHT22;22841;50.252;18.688;2023-11-19T13:05:29;2.30;99.90
36924;DHT22;22841;50.252;18.688;2023-11-19T13:08:04;2.30;99.90
36924;DHT22;22841;50.252;18.688;2023-11-19T13:10:32;2.40;99.90
36924;DHT22;22841;50.252;18.688;2023-11-19T13:13:06;2.40;99.90
36924;DHT22;22841;50.252;18.688;2023-11-19T13:15:34;2.40;99.90
36924;DHT22;22841;50.252;18.688;2023-11-19T13:18:01;2.40;99.90
36924;DHT22;22841;50.252;18.688;2023-11-19T13:20:28;2.50;99.90
36924;DHT22;22841;50.252;18.688;2023-11-19T13:25:21;2.60;99.90
36924;DHT22;22841;50.252;18.688;2023-11-19T13:27:48;2.60;99.90
36924;DHT22;22841;50.252;18.688;2023-11-19T13:30:15;2.70;99.90
36924;DHT22;22841;50.252;18.688;2023-11-19T13:32:42;2.70;99.90
36924;DHT22;22841;50.252;18.688;2023-11-19T13:35:10;2.80;99.90
36924;DHT22;22841;50.252;18.688;2023-11-19T13:37:36;2.90;99.90
36924;DHT22;22841;50.252;18.688;2023-11-19T13:40:02;2.90;99.90
36924;DHT22;22841;50.252;18.688;2023-11-19T13:42:29;3.00;99.90
36924;DHT22;22841;50.252;18.688;2023-11-19T13:44:55;3.00;99.90
36924;DHT22;22841;50.252;18.688;2023-11-19T13:47:22;3.00;99.90
36924;DHT22;22841;50.252;18.688;2023-11-19T13:49:50;3.10;99.90
36924;DHT22;22841;50.252;18.688;2023-11-19T13:52:16;3.10;99.90
36924;DHT22;22841;50.252;18.688;2023-11-19T13:54:42;3.20;99.90
36924;DHT22;22841;50.252;18.688;2023-11-19T13:57:08;3.20;99.90
36924;DHT22;22841;50.252;18.688;2023-11-19T13:59:39;3.20;99.90
36924;DHT22;22841;50.252;18.688;2023-11-19T14:02:06;3.30;99.90
36924;DHT22;22841;50.252;18.688;2023-11-19T14:04:33;3.30;99.90
36924;DHT22;22841;50.252;18.688;2023-11-19T14:06:59;3.40;99.90
36924;DHT22;22841;50.252;18.688;2023-11-19T14:09:25;3.40;99.90
36924;DHT22;22841;50.252;18.688;2023-11-19T14:11:51;3.40;99.90
36924;DHT22;22841;50.252;18.688;2023-11-19T14:14:18;3.50;99.90
36924;DHT22;22841;50.252;18.688;2023-11-19T14:16:44;3.50;99.90
36924;DHT22;22841;50.252;18.688;2023-11-19T14:19:10;3.50;99.90
36924;DHT22;22841;50.252;18.688;2023-11-19T14:21:36;3.50;99.90
36924;DHT22;22841;50.252;18.688;2023-11-19T14:24:02;3.50;99.90
36924;DHT22;22841;50.252;18.688;2023-11-19T14:26:29;3.60;99.90
36924;DHT22;22841;50.252;18.688;2023-11-19T14:28:55;3.60;99.90
36924;DHT22;22841;50.252;18.688;2023-11-19T14:31:21;3.60;99.90
36924;DHT22;22841;50.252;18.688;2023-11-19T14:33:47;3.60;99.90
36924;DHT22;22841;50.252;18.688;2023-11-19T14:36:14;3.60;99.90
36924;DHT22;22841;50.252;18.688;2023-11-19T14:38:40;3.60;99.90
36924;DHT22;22841;50.252;18.688;2023-11-19T14:41:06;3.60;99.90
36924;DHT22;22841;50.252;18.688;2023-11-19T14:43:33;3.60;99.90
36924;DHT22;22841;50.252;18.688;2023-11-19T14:46:00;3.70;99.90
36924;DHT22;22841;50.252;18.688;2023-11-19T14:48:29;3.70;99.90
36924;DHT22;22841;50.252;18.688;2023-11-19T14:50:55;3.70;99.90
36924;DHT22;22841;50.252;18.688;2023-11-19T14:53:21;3.70;99.90
36924;DHT22;22841;50.252;18.688;2023-11-19T14:55:48;3.70;99.90
36924;DHT22;22841;50.252;18.688;2023-11-19T14:58:14;3.80;99.90
36924;DHT22;22841;50.252;18.688;2023-11-19T15:03:16;3.90;99.90
36924;DHT22;22841;50.252;18.688;2023-11-19T15:05:45;3.90;99.90
36924;DHT22;22841;50.252;18.688;2023-11-19T15:08:14;3.90;99.90
36924;DHT22;22841;50.252;18.688;2023-11-19T15:10:43;3.90;99.90
36924;DHT22;22841;50.252;18.688;2023-11-19T15:13:11;3.90;99.90
36924;DHT22;22841;50.252;18.688;2023-11-19T15:15:37;3.90;99.90
36924;DHT22;22841;50.252;18.688;2023-11-19T15:18:04;3.90;99.90
36924;DHT22;22841;50.252;18.688;2023-11-19T15:20:31;3.90;99.90
36924;DHT22;22841;50.252;18.688;2023-11-19T15:22:57;3.90;99.90
36924;DHT22;22841;50.252;18.688;2023-11-19T15:25:24;4.00;99.90
36924;DHT22;22841;50.252;18.688;2023-11-19T15:30:26;4.10;99.90
36924;DHT22;22841;50.252;18.688;2023-11-19T15:35:28;4.10;99.90
36924;DHT22;22841;50.252;18.688;2023-11-19T15:37:54;4.10;99.90
36924;DHT22;22841;50.252;18.688;2023-11-19T15:40:22;4.10;99.90
36924;DHT22;22841;50.252;18.688;2023-11-19T15:42:48;4.10;99.90
36924;DHT22;22841;50.252;18.688;2023-11-19T15:55:38;4.20;99.90
36924;DHT22;22841;50.252;18.688;2023-11-19T15:58:04;4.20;99.90
36924;DHT22;22841;50.252;18.688;2023-11-19T16:00:30;4.20;99.90
36924;DHT22;22841;50.252;18.688;2023-11-19T16:02:57;4.20;99.90
36924;DHT22;22841;50.252;18.688;2023-11-19T16:05:23;4.20;99.90
36924;DHT22;22841;50.252;18.688;2023-11-19T16:07:49;4.20;99.90
36924;DHT22;22841;50.252;18.688;2023-11-19T16:10:19;4.10;99.90
36924;DHT22;22841;50.252;18.688;2023-11-19T16:12:48;4.10;99.90
36924;DHT22;22841;50.252;18.688;2023-11-19T16:15:14;4.10;99.90
36924;DHT22;22841;50.252;18.688;2023-11-19T16:20:16;4.20;99.90
36924;DHT22;22841;50.252;18.688;2023-11-19T16:22:42;4.20;99.90
36924;DHT22;22841;50.252;18.688;2023-11-19T16:25:09;4.20;99.90
36924;DHT22;22841;50.252;18.688;2023-11-19T16:27:35;4.20;99.90
36924;DHT22;22841;50.252;18.688;2023-11-19T16:30:02;4.30;99.90
36924;DHT22;22841;50.252;18.688;2023-11-19T16:32:28;4.30;99.90
36924;DHT22;22841;50.252;18.688;2023-11-19T16:34:54;4.30;99.90
36924;DHT22;22841;50.252;18.688;2023-11-19T16:37:21;4.30;99.90
36924;DHT22;22841;50.252;18.688;2023-11-19T16:39:48;4.30;99.90
36924;DHT22;22841;50.252;18.688;2023-11-19T16:42:14;4.30;99.90
36924;DHT22;22841;50.252;18.688;2023-11-19T16:44:41;4.30;99.90
36924;DHT22;22841;50.252;18.688;2023-11-19T16:47:07;4.30;99.90
36924;DHT22;22841;50.252;18.688;2023-11-19T16:49:33;4.30;99.90
36924;DHT22;22841;50.252;18.688;2023-11-19T16:52:00;4.30;99.90
36924;DHT22;22841;50.252;18.688;2023-11-19T16:54:26;4.40;99.90
36924;DHT22;22841;50.252;18.688;2023-11-19T16:56:52;4.40;99.90
36924;DHT22;22841;50.252;18.688;2023-11-19T17:01:55;4.50;99.90
36924;DHT22;22841;50.252;18.688;2023-11-19T17:04:21;4.50;99.90
36924;DHT22;22841;50.252;18.688;2023-11-19T17:06:47;4.50;99.90
36924;DHT22;22841;50.252;18.688;2023-11-19T17:09:13;4.50;99.90
36924;DHT22;22841;50.252;18.688;2023-11-19T17:11:40;4.50;99.90
36924;DHT22;22841;50.252;18.688;2023-11-19T17:14:07;4.50;99.90
36924;DHT22;22841;50.252;18.688;2023-11-19T17:16:34;4.50;99.90
36924;DHT22;22841;50.252;18.688;2023-11-19T17:24:12;4.60;99.90
36924;DHT22;22841;50.252;18.688;2023-11-19T17:26:39;4.60;99.90
36924;DHT22;22841;50.252;18.688;2023-11-19T17:34:17;4.60;99.90
36924;DHT22;22841;50.252;18.688;2023-11-19T17:36:44;4.60;99.90
36924;DHT22;22841;50.252;18.688;2023-11-19T17:39:10;4.60;99.90
36924;DHT22;22841;50.252;18.688;2023-11-19T17:41:36;4.60;99.90
36924;DHT22;22841;50.252;18.688;2023-11-19T17:44:04;4.60;99.90
36924;DHT22;22841;50.252;18.688;2023-11-19T17:46:30;4.60;99.90
36924;DHT22;22841;50.252;18.688;2023-11-19T17:48:56;4.60;99.90
36924;DHT22;22841;50.252;18.688;2023-11-19T17:51:22;4.60;99.90
36924;DHT22;22841;50.252;18.688;2023-11-19T17:53:48;4.60;99.90
36924;DHT22;22841;50.252;18.688;2023-11-19T17:56:15;4.60;99.90
36924;DHT22;22841;50.252;18.688;2023-11-19T17:58:41;4.60;99.90
36924;DHT22;22841;50.252;18.688;2023-11-19T18:01:07;4.70;99.90
36924;DHT22;22841;50.252;18.688;2023-11-19T18:03:33;4.70;99.90
36924;DHT22;22841;50.252;18.688;2023-11-19T18:06:00;4.70;99.90
36924;DHT22;22841;50.252;18.688;2023-11-19T18:08:26;4.70;99.90
36924;DHT22;22841;50.252;18.688;2023-11-19T18:10:52;4.70;99.90
36924;DHT22;22841;50.252;18.688;2023-11-19T18:13:18;4.60;99.90
36924;DHT22;22841;50.252;18.688;2023-11-19T18:15:44;4.60;99.90
36924;DHT22;22841;50.252;18.688;2023-11-19T18:18:10;4.60;99.90
36924;DHT22;22841;50.252;18.688;2023-11-19T18:20:36;4.60;99.90
36924;DHT22;22841;50.252;18.688;2023-11-19T18:23:02;4.60;99.90
36924;DHT22;22841;50.252;18.688;2023-11-19T18:25:29;4.60;99.90
36924;DHT22;22841;50.252;18.688;2023-11-19T18:27:55;4.60;99.90
36924;DHT22;22841;50.252;18.688;2023-11-19T18:30:21;4.60;99.90
36924;DHT22;22841;50.252;18.688;2023-11-19T18:32:48;4.60;99.90
36924;DHT22;22841;50.252;18.688;2023-11-19T18:35:14;4.60;99.90
36924;DHT22;22841;50.252;18.688;2023-11-19T18:37:42;4.60;99.90
36924;DHT22;22841;50.252;18.688;2023-11-19T18:40:09;4.60;99.90
36924;DHT22;22841;50.252;18.688;2023-11-19T18:42:36;4.60;99.90
36924;DHT22;22841;50.252;18.688;2023-11-19T18:45:03;4.70;99.90
36924;DHT22;22841;50.252;18.688;2023-11-19T18:47:33;4.70;99.90
36924;DHT22;22841;50.252;18.688;2023-11-19T18:49:59;4.70;99.90
36924;DHT22;22841;50.252;18.688;2023-11-19T18:52:26;4.70;99.90
36924;DHT22;22841;50.252;18.688;2023-11-19T18:54:52;4.70;99.90
36924;DHT22;22841;50.252;18.688;2023-11-19T18:57:19;4.70;99.90
36924;DHT22;22841;50.252;18.688;2023-11-19T18:59:45;4.70;99.90
36924;DHT22;22841;50.252;18.688;2023-11-19T19:02:13;4.80;99.90
36924;DHT22;22841;50.252;18.688;2023-11-19T19:04:41;4.80;99.90
36924;DHT22;22841;50.252;18.688;2023-11-19T19:07:07;4.80;99.90
36924;DHT22;22841;50.252;18.688;2023-11-19T19:09:34;4.80;99.90
36924;DHT22;22841;50.252;18.688;2023-11-19T19:12:03;4.80;99.90
36924;DHT22;22841;50.252;18.688;2023-11-19T19:14:30;4.80;99.90
36924;DHT22;22841;50.252;18.688;2023-11-19T19:16:56;4.80;99.90
36924;DHT22;22841;50.252;18.688;2023-11-19T19:19:22;4.90;99.90
36924;DHT22;22841;50.252;18.688;2023-11-19T19:21:49;4.90;99.90
36924;DHT22;22841;50.252;18.688;2023-11-19T19:24:16;4.90;99.90
36924;DHT22;22841;50.252;18.688;2023-11-19T19:26:42;4.80;99.90
36924;DHT22;22841;50.252;18.688;2023-11-19T19:29:08;4.90;99.90
36924;DHT22;22841;50.252;18.688;2023-11-19T19:31:34;5.00;99.90
36924;DHT22;22841;50.252;18.688;2023-11-19T19:34:00;4.90;99.90
36924;DHT22;22841;50.252;18.688;2023-11-19T19:36:27;5.00;99.90
36924;DHT22;22841;50.252;18.688;2023-11-19T19:39:00;5.00;99.90
36924;DHT22;22841;50.252;18.688;2023-11-19T19:41:26;4.90;99.90
36924;DHT22;22841;50.252;18.688;2023-11-19T19:43:52;4.90;99.90
36924;DHT22;22841;50.252;18.688;2023-11-19T19:46:18;4.90;99.90
36924;DHT22;22841;50.252;18.688;2023-11-19T19:48:45;4.90;99.90
36924;DHT22;22841;50.252;18.688;2023-11-19T19:51:11;4.90;99.90
36924;DHT22;22841;50.252;18.688;2023-11-19T19:53:37;4.90;99.90
36924;DHT22;22841;50.252;18.688;2023-11-19T19:56:04;4.90;99.90
36924;DHT22;22841;50.252;18.688;2023-11-19T19:58:31;4.90;99.90
36924;DHT22;22841;50.252;18.688;2023-11-19T20:00:58;4.90;99.90
36924;DHT22;22841;50.252;18.688;2023-11-19T20:03:26;4.90;99.90
36924;DHT22;22841;50.252;18.688;2023-11-19T20:05:56;4.80;99.90
36924;DHT22;22841;50.252;18.688;2023-11-19T20:08:23;4.80;99.90
36924;DHT22;22841;50.252;18.688;2023-11-19T20:10:50;4.90;99.90
36924;DHT22;22841;50.252;18.688;2023-11-19T20:13:16;4.90;99.90
36924;DHT22;22841;50.252;18.688;2023-11-19T20:15:43;5.00;99.90
36924;DHT22;22841;50.252;18.688;2023-11-19T20:18:11;4.90;99.90
36924;DHT22;22841;50.252;18.688;2023-11-19T20:20:39;4.90;99.90
36924;DHT22;22841;50.252;18.688;2023-11-19T20:23:06;5.00;99.90
36924;DHT22;22841;50.252;18.688;2023-11-19T20:25:32;5.00;99.90
36924;DHT22;22841;50.252;18.688;2023-11-19T20:27:59;5.10;99.90
36924;DHT22;22841;50.252;18.688;2023-11-19T20:30:25;5.00;99.90
36924;DHT22;22841;50.252;18.688;2023-11-19T20:32:51;5.00;99.90
36924;DHT22;22841;50.252;18.688;2023-11-19T20:35:17;5.00;99.90
36924;DHT22;22841;50.252;18.688;2023-11-19T20:37:44;5.00;99.90
36924;DHT22;22841;50.252;18.688;2023-11-19T20:40:10;5.10;99.90
36924;DHT22;22841;50.252;18.688;2023-11-19T20:42:38;5.10;99.90
36924;DHT22;22841;50.252;18.688;2023-11-19T20:45:08;5.20;99.90
36924;DHT22;22841;50.252;18.688;2023-11-19T20:47:40;5.20;99.90
36924;DHT22;22841;50.252;18.688;2023-11-19T20:50:07;5.20;99.90
36924;DHT22;22841;50.252;18.688;2023-11-19T20:52:34;5.20;99.90
36924;DHT22;22841;50.252;18.688;2023-11-19T20:55:01;5.20;99.90
36924;DHT22;22841;50.252;18.688;2023-11-19T20:57:28;5.30;99.90
36924;DHT22;22841;50.252;18.688;2023-11-19T20:59:55;5.30;99.90
36924;DHT22;22841;50.252;18.688;2023-11-19T21:02:21;5.30;99.90
36924;DHT22;22841;50.252;18.688;2023-11-19T21:04:47;5.40;99.90
36924;DHT22;22841;50.252;18.688;2023-11-19T21:07:13;5.40;99.90
36924;DHT22;22841;50.252;18.688;2023-11-19T21:09:40;5.40;99.90
36924;DHT22;22841;50.252;18.688;2023-11-19T21:12:06;5.40;99.90
36924;DHT22;22841;50.252;18.688;2023-11-19T21:14:34;5.40;99.90
36924;DHT22;22841;50.252;18.688;2023-11-19T21:17:00;5.40;99.90
36924;DHT22;22841;50.252;18.688;2023-11-19T21:19:27;5.50;99.90
36924;DHT22;22841;50.252;18.688;2023-11-19T21:21:53;5.50;99.90
36924;DHT22;22841;50.252;18.688;2023-11-19T21:24:19;5.50;99.90
36924;DHT22;22841;50.252;18.688;2023-11-19T21:26:46;5.50;99.90
36924;DHT22;22841;50.252;18.688;2023-11-19T21:29:12;5.50;99.90
36924;DHT22;22841;50.252;18.688;2023-11-19T21:31:39;5.50;99.90
36924;DHT22;22841;50.252;18.688;2023-11-19T21:34:15;5.60;99.90
36924;DHT22;22841;50.252;18.688;2023-11-19T21:36:41;5.60;99.90
36924;DHT22;22841;50.252;18.688;2023-11-19T21:39:07;5.60;99.90
36924;DHT22;22841;50.252;18.688;2023-11-19T21:41:35;5.70;99.90
36924;DHT22;22841;50.252;18.688;2023-11-19T21:44:01;5.70;99.90
36924;DHT22;22841;50.252;18.688;2023-11-19T21:46:27;5.70;99.90
36924;DHT22;22841;50.252;18.688;2023-11-19T21:48:53;5.70;99.90
36924;DHT22;22841;50.252;18.688;2023-11-19T21:51:19;5.70;99.90
36924;DHT22;22841;50.252;18.688;2023-11-19T21:53:45;5.70;99.90
36924;DHT22;22841;50.252;18.688;2023-11-19T21:56:12;5.80;99.90
36924;DHT22;22841;50.252;18.688;2023-11-19T21:58:38;5.80;99.90
36924;DHT22;22841;50.252;18.688;2023-11-19T22:01:04;5.80;99.90
36924;DHT22;22841;50.252;18.688;2023-11-19T22:03:30;5.80;99.90
36924;DHT22;22841;50.252;18.688;2023-11-19T22:05:56;5.80;99.90
36924;DHT22;22841;50.252;18.688;2023-11-19T22:08:22;5.90;99.90
36924;DHT22;22841;50.252;18.688;2023-11-19T22:10:49;5.90;99.90
36924;DHT22;22841;50.252;18.688;2023-11-19T22:13:15;6.00;99.90
36924;DHT22;22841;50.252;18.688;2023-11-19T22:15:41;6.00;99.90
36924;DHT22;22841;50.252;18.688;2023-11-19T22:18:07;5.90;99.90
36924;DHT22;22841;50.252;18.688;2023-11-19T22:20:36;6.00;99.90
36924;DHT22;22841;50.252;18.688;2023-11-19T22:23:02;5.90;99.90
36924;DHT22;22841;50.252;18.688;2023-11-19T22:25:28;5.90;99.90
36924;DHT22;22841;50.252;18.688;2023-11-19T22:27:55;5.90;99.90
36924;DHT22;22841;50.252;18.688;2023-11-19T22:30:21;5.90;99.90
36924;DHT22;22841;50.252;18.688;2023-11-19T22:32:47;5.90;99.90
36924;DHT22;22841;50.252;18.688;2023-11-19T22:35:13;6.00;99.90
36924;DHT22;22841;50.252;18.688;2023-11-19T22:37:40;6.00;99.90
36924;DHT22;22841;50.252;18.688;2023-11-19T22:40:07;6.00;99.90
36924;DHT22;22841;50.252;18.688;2023-11-19T22:42:34;6.00;99.90
36924;DHT22;22841;50.252;18.688;2023-11-19T22:45:02;6.00;99.90
36924;DHT22;22841;50.252;18.688;2023-11-19T22:47:28;6.00;99.90
36924;DHT22;22841;50.252;18.688;2023-11-19T22:49:57;6.00;99.90
36924;DHT22;22841;50.252;18.688;2023-11-19T22:52:23;6.00;99.90
36924;DHT22;22841;50.252;18.688;2023-11-19T22:54:49;6.00;99.90
36924;DHT22;22841;50.252;18.688;2023-11-19T22:57:15;5.90;99.90
36924;DHT22;22841;50.252;18.688;2023-11-19T22:59:41;5.90;99.90
36924;DHT22;22841;50.252;18.688;2023-11-19T23:02:08;6.00;99.90
36924;DHT22;22841;50.252;18.688;2023-11-19T23:04:34;6.00;99.90
36924;DHT22;22841;50.252;18.688;2023-11-19T23:07:00;6.00;99.90
36924;DHT22;22841;50.252;18.688;2023-11-19T23:09:27;6.10;99.90
36924;DHT22;22841;50.252;18.688;2023-11-19T23:11:53;6.10;99.90
36924;DHT22;22841;50.252;18.688;2023-11-19T23:14:19;6.10;99.90
36924;DHT22;22841;50.252;18.688;2023-11-19T23:16:45;6.00;99.90
36924;DHT22;22841;50.252;18.688;2023-11-19T23:19:11;6.10;99.90
36924;DHT22;22841;50.252;18.688;2023-11-19T23:21:37;6.10;99.90
36924;DHT22;22841;50.252;18.688;2023-11-19T23:24:09;6.10;99.90
36924;DHT22;22841;50.252;18.688;2023-11-19T23:26:36;6.10;99.90
36924;DHT22;22841;50.252;18.688;2023-11-19T23:29:02;6.10;99.90
36924;DHT22;22841;50.252;18.688;2023-11-19T23:31:32;6.10;99.90
36924;DHT22;22841;50.252;18.688;2023-11-19T23:33:58;6.10;99.90
36924;DHT22;22841;50.252;18.688;2023-11-19T23:36:24;6.10;99.90
36924;DHT22;22841;50.252;18.688;2023-11-19T23:38:50;6.10;99.90
36924;DHT22;22841;50.252;18.688;2023-11-19T23:41:16;6.20;99.90
36924;DHT22;22841;50.252;18.688;2023-11-19T23:43:42;6.10;99.90
36924;DHT22;22841;50.252;18.688;2023-11-19T23:46:10;6.10;99.90
36924;DHT22;22841;50.252;18.688;2023-11-19T23:48:38;6.10;99.90
36924;DHT22;22841;50.252;18.688;2023-11-19T23:51:04;6.10;99.90
36924;DHT22;22841;50.252;18.688;2023-11-19T23:53:30;6.10;99.90
36924;DHT22;22841;50.252;18.688;2023-11-19T23:55:56;6.10;99.90